Terminal Aerodrome Forecast
Issued by NWS Sterling, VA

Current Version | Previous Version | Graphics & Text | Print | Product List | Glossary On
Versions: 1 2 3 4 5 6 7 8 9 10 11 12 13 14 15 16 17 18 19 20 21 22 23 24
000
FTUS41 KLWX 242000 AAA
TAFMRB
TAF AMD
KMRB 242007Z 2420/2518 31013G20KT P6SM SCT025 SCT250
     FM250200 28008KT P6SM SCT250
     FM251000 VRB04KT 5SM BR SCT030 BKN150=

USA.gov is the U.S. government's official web portal to all federal, state and local government web resources and services.